Time;durP1;ratioP1;P1;durP2;ratioP2;P2;SDS_P1;SDS_P2;PMS_P1;PMS_P2;Temp;Humidity;BMP_temperature;BMP_pressure;BME280_temperature;BME280_humidity;BME280_pressure;Samples;Min_cycle;Max_cycle;Signal;HPM_P1;HPM_P2
2023/05/12 00:01:53;;;;;;;4.28;2.55;;;15.90;56.30;;;;;;5010595;28;20193;-50
2023/05/12 00:04:23;;;;;;;3.65;2.20;;;15.90;56.30;;;;;;5010958;28;20689;-50
2023/05/12 00:06:56;;;;;;;3.42;1.90;;;16.00;56.40;;;;;;5010710;28;20221;-53
2023/05/12 00:09:26;;;;;;;2.83;1.92;;;16.00;56.30;;;;;;5009769;28;20216;-53
2023/05/12 00:11:57;;;;;;;3.92;2.25;;;16.00;56.40;;;;;;5014067;28;20200;-51
2023/05/12 00:14:28;;;;;;;4.28;2.15;;;16.00;56.30;;;;;;5014661;28;20665;-53
2023/05/12 00:16:58;;;;;;;5.78;2.40;;;16.00;56.20;;;;;;5014862;28;20603;-54
2023/05/12 00:19:29;;;;;;;3.60;1.98;;;16.10;56.30;;;;;;5014227;28;20223;-49
2023/05/12 00:22:02;;;;;;;3.90;1.98;;;16.10;56.40;;;;;;5014332;28;20197;-51
2023/05/12 00:24:32;;;;;;;4.13;2.28;;;16.10;56.90;;;;;;5014617;28;20212;-51
2023/05/12 00:27:03;;;;;;;4.05;2.00;;;16.20;56.40;;;;;;5014439;28;20282;-56
2023/05/12 00:29:34;;;;;;;4.75;2.15;;;16.20;56.40;;;;;;5014698;28;20615;-52
2023/05/12 00:32:05;;;;;;;4.13;2.25;;;16.20;56.40;;;;;;5014640;28;20247;-55
2023/05/12 00:34:36;;;;;;;5.95;2.40;;;16.20;56.40;;;;;;5015333;28;20201;-51
2023/05/12 00:37:09;;;;;;;5.80;2.17;;;16.30;56.70;;;;;;5014095;28;20197;-51
2023/05/12 00:39:39;;;;;;;3.50;1.80;;;16.30;56.80;;;;;;5014727;28;20279;-52
2023/05/12 00:42:10;;;;;;;4.57;2.55;;;16.30;56.70;;;;;;5013667;28;20204;-48
2023/05/12 00:44:41;;;;;;;4.82;1.85;;;16.30;57.20;;;;;;5014004;28;20193;-54
2023/05/12 00:47:13;;;;;;;3.28;1.73;;;16.30;56.60;;;;;;5013296;28;20223;-53
2023/05/12 00:49:44;;;;;;;5.55;2.30;;;16.40;56.60;;;;;;5014616;28;20217;-51
2023/05/12 00:52:16;;;;;;;2.63;1.77;;;16.50;57.10;;;;;;5014438;28;20208;-53
2023/05/12 00:54:47;;;;;;;3.95;2.15;;;16.50;57.00;;;;;;5013593;28;20197;-52
2023/05/12 00:57:18;;;;;;;3.42;1.95;;;16.50;56.90;;;;;;5014135;28;20653;-51
2023/05/12 00:59:48;;;;;;;2.40;1.70;;;16.50;56.90;;;;;;5012672;28;20221;-54
2023/05/12 01:02:19;;;;;;;2.58;1.88;;;16.60;56.80;;;;;;5013607;28;20197;-56
2023/05/12 01:04:51;;;;;;;5.13;2.00;;;16.60;56.70;;;;;;5013512;28;20200;-54
2023/05/12 01:07:26;;;;;;;3.63;1.88;;;16.60;56.70;;;;;;5013672;28;20307;-52
2023/05/12 01:10:00;;;;;;;2.72;1.70;;;16.60;56.70;;;;;;5012490;28;20235;-53
2023/05/12 01:12:31;;;;;;;3.45;2.05;;;16.70;56.70;;;;;;5013431;28;20653;-50
2023/05/12 01:15:01;;;;;;;3.10;1.85;;;16.70;56.60;;;;;;5013265;28;20243;-55
2023/05/12 01:17:36;;;;;;;2.85;1.73;;;16.70;56.60;;;;;;5013830;28;20216;-55
2023/05/12 01:20:09;;;;;;;4.68;2.28;;;16.70;56.50;;;;;;5013887;28;20212;-57
2023/05/12 01:22:42;;;;;;;2.85;1.63;;;16.70;56.50;;;;;;5011724;28;20208;-50
2023/05/12 01:25:14;;;;;;;2.20;1.33;;;16.80;56.50;;;;;;5012385;28;20204;-52
2023/05/12 01:27:48;;;;;;;3.05;1.70;;;16.80;56.60;;;;;;5013318;28;20236;-47
2023/05/12 01:30:20;;;;;;;2.30;1.35;;;16.80;56.70;;;;;;5013421;28;20220;-52
2023/05/12 01:32:50;;;;;;;2.40;1.63;;;16.90;56.70;;;;;;5013333;28;20201;-50
2023/05/12 01:35:21;;;;;;;3.35;1.60;;;16.90;56.70;;;;;;5013397;28;20192;-57
2023/05/12 01:37:52;;;;;;;2.05;1.42;;;16.90;56.60;;;;;;5013817;28;20204;-51
2023/05/12 01:40:23;;;;;;;2.80;1.73;;;16.90;56.60;;;;;;5013338;28;20307;-54
2023/05/12 01:42:56;;;;;;;2.58;1.60;;;17.00;56.60;;;;;;5013334;28;20284;-50
2023/05/12 01:45:27;;;;;;;2.85;1.35;;;17.00;56.50;;;;;;5012900;28;20280;-48
2023/05/12 01:47:57;;;;;;;2.78;1.90;;;17.00;56.50;;;;;;5012970;28;20707;-50
2023/05/12 01:50:28;;;;;;;2.70;1.45;;;17.00;56.50;;;;;;5013271;28;20274;-51
2023/05/12 01:52:59;;;;;;;3.22;1.50;;;17.10;56.50;;;;;;5012807;28;20216;-53
2023/05/12 01:55:29;;;;;;;3.00;1.60;;;17.10;56.50;;;;;;5013247;28;20200;-53
2023/05/12 01:58:02;;;;;;;1.90;1.60;;;17.10;56.40;;;;;;5013006;28;20204;-53
2023/05/12 02:00:32;;;;;;;1.95;1.33;;;17.10;56.40;;;;;;5012457;28;20201;-53
2023/05/12 02:03:03;;;;;;;3.13;1.70;;;17.20;56.40;;;;;;5012717;28;20201;-50
2023/05/12 02:05:34;;;;;;;1.67;1.00;;;17.20;56.40;;;;;;5010880;28;20220;-52
2023/05/12 02:08:04;;;;;;;1.52;1.20;;;17.20;56.40;;;;;;5013202;28;20221;-48
2023/05/12 02:10:35;;;;;;;2.58;1.75;;;17.20;56.30;;;;;;5013217;28;20240;-53
2023/05/12 02:13:08;;;;;;;1.88;1.60;;;17.20;56.30;;;;;;5013057;28;20200;-55
2023/05/12 02:15:38;;;;;;;2.83;1.45;;;17.30;56.30;;;;;;5012919;28;20200;-49
2023/05/12 02:18:09;;;;;;;2.50;1.65;;;17.30;56.30;;;;;;5012495;28;20251;-52
2023/05/12 02:20:39;;;;;;;2.25;1.35;;;17.30;56.20;;;;;;5013039;28;20208;-54
2023/05/12 02:23:10;;;;;;;2.70;1.20;;;17.30;56.30;;;;;;5013025;28;20212;-53
2023/05/12 02:25:41;;;;;;;2.05;1.25;;;17.40;56.30;;;;;;5012673;28;20272;-53
2023/05/12 02:28:13;;;;;;;2.85;1.67;;;17.40;56.20;;;;;;5012527;28;20723;-52
2023/05/12 02:30:48;;;;;;;2.35;1.30;;;17.40;56.20;;;;;;5012321;28;20216;-51
2023/05/12 02:33:20;;;;;;;2.63;1.35;;;17.40;56.20;;;;;;5011997;28;20303;-52
2023/05/12 02:35:50;;;;;;;3.30;1.85;;;17.50;56.20;;;;;;5012395;28;20201;-51
2023/05/12 02:38:21;;;;;;;2.08;1.45;;;17.50;56.20;;;;;;5012941;28;20689;-55
2023/05/12 02:40:52;;;;;;;2.30;1.17;;;17.50;56.10;;;;;;5012673;28;20197;-52
2023/05/12 02:43:24;;;;;;;1.92;1.40;;;17.50;56.10;;;;;;5012703;28;20208;-48
2023/05/12 02:45:56;;;;;;;1.77;1.10;;;17.60;56.10;;;;;;5011852;28;20201;-53
2023/05/12 02:48:26;;;;;;;2.03;1.30;;;17.50;56.00;;;;;;5011884;28;20236;-52
2023/05/12 02:50:57;;;;;;;2.47;1.40;;;17.60;56.10;;;;;;5012482;28;20204;-52
2023/05/12 02:53:28;;;;;;;1.77;1.23;;;17.60;56.10;;;;;;5012544;28;20201;-51
2023/05/12 02:55:58;;;;;;;1.48;1.20;;;17.60;56.10;;;;;;5012141;28;20626;-50
2023/05/12 02:58:31;;;;;;;2.78;1.70;;;17.60;56.00;;;;;;5012140;28;20712;-51
2023/05/12 03:01:02;;;;;;;1.50;1.40;;;17.60;56.00;;;;;;5011965;28;20679;-49
2023/05/12 03:03:32;;;;;;;1.60;1.30;;;17.60;56.00;;;;;;5011691;28;20203;-53
2023/05/12 03:06:03;;;;;;;3.17;1.58;;;17.60;56.00;;;;;;5011358;28;20648;-49
2023/05/12 03:08:34;;;;;;;3.10;1.42;;;17.70;56.00;;;;;;5011382;28;20696;-56
2023/05/12 03:11:04;;;;;;;1.10;1.00;;;17.70;55.90;;;;;;5011648;28;20193;-51
2023/05/12 03:13:37;;;;;;;1.65;1.20;;;17.70;55.90;;;;;;5011584;28;20200;-50
2023/05/12 03:16:08;;;;;;;1.67;1.10;;;17.80;55.90;;;;;;5011687;28;20200;-54
2023/05/12 03:18:38;;;;;;;2.97;1.38;;;17.70;55.90;;;;;;5011213;28;20224;-51
2023/05/12 03:21:09;;;;;;;2.53;1.27;;;17.80;55.90;;;;;;5011523;28;20567;-53
2023/05/12 03:23:40;;;;;;;1.27;1.00;;;17.80;55.90;;;;;;5011279;28;20212;-55
2023/05/12 03:26:13;;;;;;;2.30;1.58;;;17.80;55.80;;;;;;5010950;28;20284;-52
2023/05/12 03:28:47;;;;;;;2.42;1.33;;;17.80;55.80;;;;;;5011018;28;20602;-52
2023/05/12 03:31:18;;;;;;;3.20;1.20;;;17.80;56.40;;;;;;5011777;28;20208;-49
2023/05/12 03:33:48;;;;;;;2.45;1.55;;;17.80;55.80;;;;;;5011753;28;20196;-48
2023/05/12 03:36:19;;;;;;;1.38;1.20;;;17.80;55.80;;;;;;5011097;28;20207;-49
2023/05/12 03:38:50;;;;;;;2.22;1.20;;;17.80;55.80;;;;;;5011955;28;20300;-51
2023/05/12 03:41:20;;;;;;;1.38;1.13;;;17.80;55.70;;;;;;5011481;28;20204;-49
2023/05/12 03:43:53;;;;;;;1.52;1.15;;;17.90;55.80;;;;;;5011163;28;20279;-49
2023/05/12 03:46:24;;;;;;;1.85;1.60;;;17.90;55.70;;;;;;5009975;28;20193;-52
2023/05/12 03:48:55;;;;;;;2.53;1.00;;;17.90;55.70;;;;;;5009995;28;20311;-50
2023/05/12 03:51:26;;;;;;;2.10;1.10;;;17.90;55.70;;;;;;5008924;28;20208;-55
2023/05/12 03:53:57;;;;;;;2.78;1.60;;;17.90;55.70;;;;;;5010668;28;20288;-51
2023/05/12 03:56:28;;;;;;;2.42;1.10;;;17.90;55.70;;;;;;5010135;28;20651;-50
2023/05/12 03:59:01;;;;;;;2.58;1.15;;;17.90;55.70;;;;;;5009235;28;20248;-52
2023/05/12 04:01:31;;;;;;;3.17;1.65;;;18.00;56.30;;;;;;5010740;28;20251;-48
2023/05/12 04:04:02;;;;;;;1.70;1.05;;;18.00;55.70;;;;;;5010141;28;20200;-52
2023/05/12 04:06:33;;;;;;;3.45;1.80;;;18.00;55.70;;;;;;5010391;28;20205;-49
2023/05/12 04:09:03;;;;;;;1.75;1.23;;;18.00;55.70;;;;;;5010019;28;20236;-54
2023/05/12 04:11:34;;;;;;;1.63;1.25;;;18.00;55.60;;;;;;5010514;28;20200;-53
2023/05/12 04:14:06;;;;;;;1.73;1.20;;;18.10;55.70;;;;;;5010700;28;20200;-51
2023/05/12 04:16:39;;;;;;;1.75;1.30;;;18.10;55.60;;;;;;5010478;28;20197;-49
2023/05/12 04:19:10;;;;;;;1.25;0.98;;;18.10;55.60;;;;;;5011272;28;20216;-48
2023/05/12 04:21:40;;;;;;;2.22;1.30;;;18.20;55.60;;;;;;5011055;28;20204;-53
2023/05/12 04:24:12;;;;;;;1.35;1.20;;;18.20;55.60;;;;;;5010866;28;20236;-51
2023/05/12 04:26:42;;;;;;;1.88;1.17;;;18.20;55.60;;;;;;5010030;28;20220;-51
2023/05/12 04:29:15;;;;;;;2.88;1.20;;;18.30;55.60;;;;;;5010611;28;20228;-49
2023/05/12 04:31:46;;;;;;;2.20;1.20;;;18.30;55.60;;;;;;5010634;28;20233;-52
2023/05/12 04:34:16;;;;;;;2.10;1.30;;;18.30;55.60;;;;;;5010577;28;20188;-50
2023/05/12 04:36:47;;;;;;;1.50;1.10;;;18.30;55.60;;;;;;5010461;28;20200;-52
2023/05/12 04:39:17;;;;;;;1.90;1.45;;;18.30;55.50;;;;;;5010249;28;20217;-53
2023/05/12 04:41:48;;;;;;;1.42;1.20;;;18.30;55.40;;;;;;5009940;28;20778;-51
2023/05/12 04:44:21;;;;;;;1.65;1.33;;;18.30;55.40;;;;;;5010130;28;20247;-49
2023/05/12 04:46:54;;;;;;;1.55;1.20;;;18.40;55.50;;;;;;5010859;28;20710;-54
2023/05/12 04:49:25;;;;;;;2.05;1.60;;;18.40;55.40;;;;;;5009143;28;20286;-54
2023/05/12 04:51:56;;;;;;;2.50;1.40;;;18.40;55.40;;;;;;5010404;28;20200;-52
2023/05/12 04:54:26;;;;;;;2.33;1.52;;;18.40;55.30;;;;;;5009297;28;20560;-51
2023/05/12 04:56:57;;;;;;;1.70;1.60;;;18.40;55.30;;;;;;5011473;28;20197;-49
2023/05/12 04:59:30;;;;;;;3.53;1.50;;;18.40;55.30;;;;;;5013421;28;20235;-48
2023/05/12 05:02:01;;;;;;;1.48;1.38;;;18.50;55.30;;;;;;5013198;28;20548;-50
2023/05/12 05:04:32;;;;;;;2.25;1.30;;;18.40;55.30;;;;;;5013407;28;20212;-52
2023/05/12 05:07:02;;;;;;;1.90;1.30;;;18.40;55.20;;;;;;5013342;28;20204;-50
2023/05/12 05:09:33;;;;;;;4.47;2.30;;;18.50;55.20;;;;;;5013051;28;20228;-52
2023/05/12 05:12:04;;;;;;;4.55;2.20;;;18.50;55.80;;;;;;5013502;28;20231;-47
2023/05/12 05:14:36;;;;;;;3.08;2.25;;;18.50;56.10;;;;;;4995693;28;20193;-51
2023/05/12 05:17:07;;;;;;;5.40;2.30;;;18.50;56.10;;;;;;5013047;28;20197;-49
2023/05/12 05:19:38;;;;;;;5.70;2.40;;;18.50;56.10;;;;;;5013836;28;20311;-51
2023/05/12 05:22:09;;;;;;;6.03;2.28;;;18.60;56.10;;;;;;5013114;28;20196;-51
2023/05/12 05:24:40;;;;;;;5.47;2.53;;;18.60;56.20;;;;;;5013386;28;20240;-51
2023/05/12 05:27:11;;;;;;;4.60;2.28;;;18.60;56.20;;;;;;5012518;28;20653;-54
2023/05/12 05:29:43;;;;;;;7.03;2.50;;;18.60;56.10;;;;;;5012608;28;20224;-51
2023/05/12 05:32:14;;;;;;;5.20;2.45;;;18.70;56.10;;;;;;5011902;28;20193;-55
2023/05/12 05:34:45;;;;;;;5.43;2.45;;;18.70;56.10;;;;;;5010386;28;20689;-53
2023/05/12 05:37:24;;;;;;;7.28;2.63;;;18.70;56.00;;;;;;5011542;28;20554;-54
2023/05/12 05:39:55;;;;;;;5.75;2.55;;;18.70;55.80;;;;;;5011251;28;20685;-54
2023/05/12 05:42:25;;;;;;;4.03;2.40;;;18.70;55.80;;;;;;5011411;28;20212;-52
2023/05/12 05:44:58;;;;;;;3.70;2.08;;;18.70;55.70;;;;;;5009215;28;20197;-48
2023/05/12 05:47:30;;;;;;;6.55;2.70;;;18.70;55.60;;;;;;5011527;28;20196;-56
2023/05/12 05:50:00;;;;;;;4.10;2.20;;;18.70;55.50;;;;;;5011212;28;20228;-57
2023/05/12 05:52:31;;;;;;;2.83;2.13;;;18.70;55.40;;;;;;5011463;28;20657;-49
2023/05/12 05:55:02;;;;;;;3.03;2.30;;;18.70;55.40;;;;;;5011001;28;20205;-54
2023/05/12 05:57:32;;;;;;;5.00;2.35;;;18.60;55.40;;;;;;5011148;28;20204;-55
2023/05/12 06:00:06;;;;;;;4.10;2.28;;;18.60;55.40;;;;;;5010537;28;20228;-53
2023/05/12 06:02:37;;;;;;;3.67;2.15;;;18.60;55.60;;;;;;5011283;28;20611;-54
2023/05/12 06:05:08;;;;;;;4.43;2.17;;;18.60;55.30;;;;;;5010526;28;20242;-55
2023/05/12 06:07:39;;;;;;;3.28;2.30;;;18.60;55.20;;;;;;5011375;28;20288;-51
2023/05/12 06:10:10;;;;;;;5.10;2.40;;;18.50;55.20;;;;;;5010136;28;20287;-53
2023/05/12 06:12:42;;;;;;;4.13;2.58;;;18.50;55.20;;;;;;5011113;28;20212;-55
2023/05/12 06:15:14;;;;;;;6.28;2.85;;;18.50;55.10;;;;;;5010747;28;20653;-51
2023/05/12 06:17:45;;;;;;;4.47;2.40;;;18.50;55.10;;;;;;5010472;28;20196;-53
2023/05/12 06:20:16;;;;;;;4.28;2.35;;;18.50;55.10;;;;;;5011257;28;20208;-51
2023/05/12 06:22:46;;;;;;;3.63;2.20;;;18.50;55.10;;;;;;5010731;28;20563;-49
2023/05/12 06:25:17;;;;;;;4.15;2.58;;;18.50;55.10;;;;;;5011073;28;20676;-58
2023/05/12 06:27:48;;;;;;;3.78;2.40;;;18.40;55.10;;;;;;5010722;28;20216;-49
2023/05/12 06:30:20;;;;;;;4.65;2.42;;;18.40;55.10;;;;;;5010862;28;20216;-52
2023/05/12 06:32:51;;;;;;;4.25;2.60;;;18.40;55.10;;;;;;5010802;28;20649;-50
2023/05/12 06:35:22;;;;;;;4.05;2.22;;;18.30;55.10;;;;;;5010499;28;20193;-48
2023/05/12 06:37:52;;;;;;;3.33;2.30;;;18.30;55.10;;;;;;5010667;28;20197;-55
2023/05/12 06:40:23;;;;;;;3.45;2.40;;;18.30;55.00;;;;;;5010549;28;20227;-52
2023/05/12 06:42:53;;;;;;;4.22;2.50;;;18.30;55.00;;;;;;5010035;28;20215;-51
2023/05/12 06:45:26;;;;;;;3.80;2.35;;;18.30;55.00;;;;;;5010763;28;20200;-53
2023/05/12 06:47:57;;;;;;;4.57;2.92;;;18.30;55.00;;;;;;5010009;28;20209;-55
2023/05/12 06:50:27;;;;;;;3.13;2.45;;;18.30;55.00;;;;;;5010609;28;20215;-52
2023/05/12 06:52:58;;;;;;;5.18;2.90;;;18.30;55.00;;;;;;5006412;28;20193;-54
2023/05/12 06:55:29;;;;;;;4.10;2.60;;;18.20;54.90;;;;;;5009903;28;20201;-51
2023/05/12 06:57:59;;;;;;;4.53;2.60;;;18.20;55.00;;;;;;5009248;28;20209;-52
2023/05/12 07:00:32;;;;;;;5.10;2.60;;;18.20;55.00;;;;;;5010380;28;20192;-53
2023/05/12 07:03:02;;;;;;;5.10;2.67;;;18.20;55.00;;;;;;5009861;28;20204;-49
2023/05/12 07:05:33;;;;;;;4.32;2.65;;;18.20;55.00;;;;;;5009905;28;20203;-49
2023/05/12 07:08:04;;;;;;;3.42;2.70;;;18.20;55.00;;;;;;5009281;28;20201;-50
2023/05/12 07:10:34;;;;;;;5.43;2.90;;;18.10;54.90;;;;;;5009486;28;20268;-49
2023/05/12 07:13:05;;;;;;;5.28;2.60;;;18.10;54.90;;;;;;5009193;28;20212;-49
2023/05/12 07:15:37;;;;;;;4.40;3.05;;;18.10;55.00;;;;;;5009631;28;20198;-49
2023/05/12 07:18:08;;;;;;;5.90;2.58;;;18.10;54.90;;;;;;5008423;28;20201;-50
2023/05/12 07:20:39;;;;;;;5.13;2.65;;;18.00;55.00;;;;;;5010195;28;20230;-49
2023/05/12 07:23:10;;;;;;;3.97;2.28;;;18.10;55.00;;;;;;5001624;28;20207;-49
2023/05/12 07:25:40;;;;;;;4.95;2.45;;;18.00;55.00;;;;;;5009997;28;20220;-53
2023/05/12 07:28:11;;;;;;;4.72;2.60;;;18.00;55.00;;;;;;5006314;28;20193;-51
2023/05/12 07:30:44;;;;;;;5.22;2.53;;;18.00;55.00;;;;;;5011172;28;20287;-53
2023/05/12 07:33:14;;;;;;;3.50;2.30;;;18.00;55.00;;;;;;5010896;28;20255;-48
2023/05/12 07:35:45;;;;;;;4.10;2.65;;;18.00;54.90;;;;;;5010918;28;20200;-49
2023/05/12 07:38:16;;;;;;;5.05;2.63;;;17.90;54.90;;;;;;5011560;28;20193;-50
2023/05/12 07:40:47;;;;;;;4.95;2.88;;;17.90;55.00;;;;;;5011584;28;20203;-50
2023/05/12 07:43:18;;;;;;;5.75;2.80;;;17.90;55.00;;;;;;5011407;28;20211;-48
2023/05/12 07:45:50;;;;;;;4.57;2.80;;;17.90;55.00;;;;;;5011051;28;20231;-51
2023/05/12 07:48:21;;;;;;;3.75;2.50;;;17.90;55.00;;;;;;5010414;28;20216;-52
2023/05/12 07:50:51;;;;;;;4.30;2.50;;;17.90;55.00;;;;;;5010998;28;20203;-49
2023/05/12 07:53:22;;;;;;;4.90;2.50;;;17.80;55.00;;;;;;5011025;28;20196;-49
2023/05/12 07:55:53;;;;;;;5.63;2.72;;;17.80;55.00;;;;;;5011492;28;20671;-51
2023/05/12 07:58:23;;;;;;;3.95;2.67;;;17.80;55.00;;;;;;5010776;28;20205;-50
2023/05/12 08:00:57;;;;;;;4.18;2.40;;;17.80;55.00;;;;;;5011636;28;20208;-52
2023/05/12 08:03:28;;;;;;;4.70;2.28;;;17.80;55.60;;;;;;5010757;28;20676;-51
2023/05/12 08:05:59;;;;;;;4.78;2.38;;;17.80;55.00;;;;;;5011272;28;20204;-53
2023/05/12 08:08:29;;;;;;;3.90;2.20;;;17.70;54.90;;;;;;5010669;28;20219;-50
2023/05/12 08:11:00;;;;;;;5.28;2.95;;;17.70;54.90;;;;;;5011226;28;20728;-48
2023/05/12 08:13:31;;;;;;;3.78;2.58;;;17.70;54.90;;;;;;5010960;28;20258;-51
2023/05/12 08:16:03;;;;;;;4.15;2.42;;;17.70;55.00;;;;;;5011048;28;20197;-48
2023/05/12 08:18:34;;;;;;;3.72;2.28;;;17.70;55.00;;;;;;5010209;28;20283;-50
2023/05/12 08:21:05;;;;;;;3.75;2.30;;;17.70;55.00;;;;;;5011165;28;20198;-49
2023/05/12 08:23:36;;;;;;;3.50;2.28;;;17.70;54.90;;;;;;5011137;28;20561;-51
2023/05/12 08:26:07;;;;;;;3.42;2.33;;;17.70;54.90;;;;;;5011002;28;20291;-51
2023/05/12 08:28:38;;;;;;;4.13;2.42;;;17.70;54.90;;;;;;5010906;28;20217;-51
2023/05/12 08:31:10;;;;;;;3.67;2.30;;;17.70;54.90;;;;;;5011243;28;20197;-52
2023/05/12 08:33:41;;;;;;;4.95;2.85;;;17.60;54.90;;;;;;5014693;28;20193;-51
2023/05/12 08:36:12;;;;;;;4.03;2.47;;;17.60;54.90;;;;;;5014973;28;20193;-54
2023/05/12 08:38:43;;;;;;;4.15;2.10;;;17.60;54.90;;;;;;5015473;28;20693;-50
2023/05/12 08:41:18;;;;;;;4.18;2.33;;;17.60;54.90;;;;;;5015074;28;20236;-49
2023/05/12 08:43:51;;;;;;;3.10;2.00;;;17.60;54.90;;;;;;5015007;28;20235;-53
2023/05/12 08:46:24;;;;;;;4.45;2.80;;;17.60;55.00;;;;;;5014663;28;20562;-52
2023/05/12 08:48:57;;;;;;;4.28;2.40;;;17.50;54.90;;;;;;5013870;28;20217;-51
2023/05/12 08:51:29;;;;;;;2.60;1.90;;;17.50;54.90;;;;;;5014252;28;20197;-49
2023/05/12 08:54:00;;;;;;;3.47;2.13;;;17.50;54.80;;;;;;5014384;28;20201;-50
2023/05/12 08:56:32;;;;;;;2.63;1.90;;;17.50;54.90;;;;;;5014647;28;20209;-51
2023/05/12 08:59:05;;;;;;;3.80;2.10;;;17.50;54.90;;;;;;5014711;28;20630;-52
2023/05/12 09:01:41;;;;;;;4.20;2.33;;;17.50;54.90;;;;;;5014528;28;20279;-47
2023/05/12 09:04:12;;;;;;;3.05;2.08;;;17.50;54.90;;;;;;5014090;28;20288;-50
2023/05/12 09:06:43;;;;;;;3.65;2.30;;;17.40;54.90;;;;;;5013634;28;20204;-49
2023/05/12 09:09:16;;;;;;;4.25;2.20;;;17.40;54.90;;;;;;5013393;28;20228;-49
2023/05/12 09:11:47;;;;;;;3.97;2.55;;;17.40;54.90;;;;;;5013949;28;20197;-51
2023/05/12 09:14:24;;;;;;;3.03;2.42;;;17.40;54.90;;;;;;5013699;28;20653;-51
2023/05/12 09:17:01;;;;;;;4.07;2.40;;;17.40;54.90;;;;;;4994090;28;20247;-49
2023/05/12 09:19:33;;;;;;;2.78;2.10;;;17.40;54.90;;;;;;4994361;28;20685;-49
2023/05/12 09:22:04;;;;;;;3.08;2.35;;;17.30;54.90;;;;;;4994319;28;20565;-50
2023/05/12 09:24:38;;;;;;;2.40;1.80;;;17.30;54.90;;;;;;4994181;28;20670;-52
2023/05/12 09:27:09;;;;;;;3.70;2.42;;;17.30;54.90;;;;;;4994115;28;20657;-48
2023/05/12 09:29:48;;;;;;;2.78;2.00;;;17.30;54.90;;;;;;4994543;28;20236;-51
2023/05/12 09:32:31;;;;;;;2.53;1.90;;;17.30;54.90;;;;;;5010017;28;20661;-49
2023/05/12 09:35:06;;;;;;;3.15;1.98;;;17.30;54.90;;;;;;5011482;28;20228;-51
2023/05/12 09:37:41;;;;;;;3.90;2.25;;;17.30;54.90;;;;;;5010154;28;20196;-54
2023/05/12 09:40:13;;;;;;;3.60;1.98;;;17.30;55.00;;;;;;5011452;28;20212;-53
2023/05/12 09:42:45;;;;;;;3.08;2.10;;;17.30;55.00;;;;;;5011126;28;20204;-51
2023/05/12 09:45:17;;;;;;;2.83;2.10;;;17.20;55.00;;;;;;5009299;28;20235;-52
2023/05/12 09:47:50;;;;;;;3.28;2.05;;;17.20;55.00;;;;;;5011034;28;20221;-54
2023/05/12 09:50:21;;;;;;;3.67;2.30;;;17.20;55.00;;;;;;5010353;28;20691;-54
2023/05/12 09:52:53;;;;;;;4.78;2.22;;;17.20;55.00;;;;;;5011943;28;20201;-54
2023/05/12 09:55:24;;;;;;;3.33;2.05;;;17.20;55.10;;;;;;5011168;28;20189;-52
2023/05/12 09:57:56;;;;;;;3.78;1.92;;;17.20;55.10;;;;;;5010954;28;20230;-56
2023/05/12 10:00:26;;;;;;;2.58;2.15;;;17.20;55.10;;;;;;5010679;28;20665;-53
2023/05/12 10:02:59;;;;;;;4.25;2.08;;;17.20;55.10;;;;;;5010737;28;20209;-51
2023/05/12 10:05:31;;;;;;;3.78;1.80;;;17.10;55.00;;;;;;5011433;28;20595;-51
2023/05/12 10:08:05;;;;;;;2.75;1.90;;;17.10;55.00;;;;;;5011336;28;20207;-52
2023/05/12 10:10:37;;;;;;;4.28;2.08;;;17.10;55.00;;;;;;5003055;28;20235;-53
2023/05/12 10:13:08;;;;;;;3.10;2.03;;;17.10;55.00;;;;;;5010703;28;20197;-49
2023/05/12 10:15:39;;;;;;;2.72;2.08;;;17.10;55.00;;;;;;5003372;28;20209;-50
2023/05/12 10:18:12;;;;;;;2.90;1.70;;;17.10;55.00;;;;;;5007487;28;20204;-50
2023/05/12 10:20:43;;;;;;;3.08;1.77;;;17.10;55.00;;;;;;5003828;28;20571;-52
2023/05/12 10:23:16;;;;;;;3.63;2.13;;;17.10;55.00;;;;;;5011105;28;20208;-49
2023/05/12 10:25:47;;;;;;;3.80;1.95;;;17.10;55.00;;;;;;5010634;28;20707;-49
2023/05/12 10:28:18;;;;;;;3.42;2.25;;;17.10;55.10;;;;;;5010397;28;20570;-51
2023/05/12 10:30:50;;;;;;;3.80;2.00;;;17.00;55.00;;;;;;5010750;28;20236;-52
2023/05/12 10:33:22;;;;;;;3.03;1.80;;;17.00;55.00;;;;;;5010379;28;20247;-50
2023/05/12 10:35:54;;;;;;;4.30;2.15;;;17.00;55.00;;;;;;5010712;28;20208;-53
2023/05/12 10:38:25;;;;;;;2.10;1.73;;;17.00;55.00;;;;;;5010488;28;20232;-51
2023/05/12 10:40:58;;;;;;;3.83;2.00;;;17.00;55.10;;;;;;5010383;28;20231;-51
2023/05/12 10:43:33;;;;;;;2.28;1.92;;;17.00;55.00;;;;;;5010299;28;22210;-52
2023/05/12 10:46:17;;;;;;;2.42;1.88;;;17.00;55.10;;;;;;5010378;28;20281;-50
2023/05/12 10:49:03;;;;;;;3.35;2.17;;;17.00;55.10;;;;;;5010583;28;20751;-51
2023/05/12 10:51:35;;;;;;;3.90;2.13;;;16.90;55.00;;;;;;5008674;28;20236;-52
2023/05/12 10:54:07;;;;;;;3.92;2.38;;;17.00;55.10;;;;;;5010334;28;20201;-52
2023/05/12 10:56:45;;;;;;;3.95;2.10;;;16.90;55.00;;;;;;5005229;28;20276;-52
2023/05/12 10:59:18;;;;;;;3.50;2.00;;;16.90;55.60;;;;;;5010439;28;20267;-50
2023/05/12 11:02:00;;;;;;;3.00;2.13;;;16.90;55.10;;;;;;5009850;28;20232;-49
2023/05/12 11:04:48;;;;;;;3.60;2.20;;;16.90;55.00;;;;;;5009648;28;21021;-51
2023/05/12 11:07:21;;;;;;;3.13;2.40;;;16.90;55.10;;;;;;5007804;28;20197;-51
2023/05/12 11:09:53;;;;;;;3.67;2.55;;;16.90;55.00;;;;;;5009485;28;20232;-51
2023/05/12 11:12:25;;;;;;;3.30;2.20;;;16.90;55.00;;;;;;5007563;28;20193;-52
2023/05/12 11:14:56;;;;;;;2.50;2.25;;;16.80;55.00;;;;;;5009622;28;20201;-51
2023/05/12 11:17:26;;;;;;;3.15;2.03;;;16.80;55.00;;;;;;5008223;28;20204;-51
2023/05/12 11:19:59;;;;;;;2.88;2.10;;;16.80;55.00;;;;;;5005421;28;20233;-51
2023/05/12 11:22:30;;;;;;;3.53;2.50;;;16.80;55.00;;;;;;5009091;28;20274;-51
2023/05/12 11:25:10;;;;;;;5.32;2.83;;;16.80;55.00;;;;;;5009273;28;20204;-54
2023/05/12 11:27:43;;;;;;;3.08;2.08;;;16.80;55.00;;;;;;5009170;28;20258;-54
2023/05/12 11:30:14;;;;;;;2.50;2.00;;;16.70;55.00;;;;;;5009719;28;20275;-51
2023/05/12 11:32:45;;;;;;;3.22;2.33;;;16.80;55.00;;;;;;5009830;28;20200;-53
2023/05/12 11:35:19;;;;;;;2.53;2.05;;;16.70;55.00;;;;;;5009300;28;20263;-52
2023/05/12 11:37:50;;;;;;;3.83;2.08;;;16.70;55.00;;;;;;5009798;28;20200;-53
2023/05/12 11:40:21;;;;;;;2.65;2.45;;;16.70;55.00;;;;;;5009260;28;20228;-49
2023/05/12 11:42:53;;;;;;;5.78;3.28;;;16.70;55.10;;;;;;5009744;28;20205;-52
2023/05/12 11:45:25;;;;;;;6.35;2.85;;;16.70;55.90;;;;;;5009307;28;20562;-51
2023/05/12 11:48:07;;;;;;;6.18;3.03;;;16.70;56.40;;;;;;5009979;28;20232;-48
2023/05/12 11:50:40;;;;;;;6.10;2.80;;;16.80;56.10;;;;;;5009281;28;20307;-47
2023/05/12 11:53:14;;;;;;;6.13;3.30;;;16.80;56.10;;;;;;5007893;28;20283;-51
2023/05/12 11:55:51;;;;;;;6.22;3.03;;;16.80;56.20;;;;;;5009488;28;20247;-50
2023/05/12 11:58:25;;;;;;;8.10;3.38;;;16.80;56.20;;;;;;5008777;28;20252;-52
2023/05/12 12:00:56;;;;;;;9.70;3.08;;;16.80;56.20;;;;;;5009201;28;20267;-53
2023/05/12 12:03:27;;;;;;;7.03;3.17;;;16.80;56.20;;;;;;5008681;28;20235;-50
2023/05/12 12:06:05;;;;;;;7.25;3.13;;;16.80;56.20;;;;;;5009048;28;20201;-51
2023/05/12 12:08:39;;;;;;;7.35;3.40;;;16.80;56.20;;;;;;5012555;28;20247;-50
2023/05/12 12:11:10;;;;;;;5.13;3.20;;;16.80;56.10;;;;;;5015079;28;20231;-51
2023/05/12 12:13:48;;;;;;;7.82;3.72;;;16.80;56.10;;;;;;5014839;28;20283;-50
2023/05/12 12:16:19;;;;;;;7.25;3.25;;;16.80;56.10;;;;;;5015142;28;20287;-50
2023/05/12 12:18:49;;;;;;;8.25;3.95;;;16.70;56.10;;;;;;5015021;28;20713;-52
2023/05/12 12:21:22;;;;;;;7.75;3.60;;;16.70;56.20;;;;;;5015272;28;20200;-50
2023/05/12 12:23:53;;;;;;;8.82;3.53;;;16.70;56.20;;;;;;5015201;28;20215;-47
2023/05/12 12:26:24;;;;;;;7.32;3.40;;;16.70;56.20;;;;;;5015116;28;20259;-53
2023/05/12 12:28:54;;;;;;;10.50;4.00;;;16.70;56.20;;;;;;5014802;28;20220;-55
2023/05/12 12:31:25;;;;;;;7.38;3.95;;;16.70;56.20;;;;;;5014791;28;20220;-57
2023/05/12 12:33:55;;;;;;;5.38;3.10;;;16.60;56.10;;;;;;5014787;28;20703;-53
2023/05/12 12:36:28;;;;;;;8.30;4.13;;;16.70;56.10;;;;;;5015172;28;20208;-52
2023/05/12 12:38:59;;;;;;;7.88;4.43;;;16.60;56.10;;;;;;5015339;28;20627;-50
2023/05/12 12:41:29;;;;;;;8.30;4.15;;;16.60;56.20;;;;;;5014700;28;20197;-50
2023/05/12 12:44:00;;;;;;;7.22;4.18;;;16.60;56.30;;;;;;5014104;28;20215;-54
2023/05/12 12:46:31;;;;;;;6.28;3.75;;;16.60;56.40;;;;;;5012497;28;20194;-53
2023/05/12 12:49:01;;;;;;;8.95;3.83;;;16.60;56.90;;;;;;5012654;28;20213;-50
2023/05/12 12:51:34;;;;;;;7.40;3.78;;;16.60;56.30;;;;;;5013104;28;20212;-54
2023/05/12 12:54:04;;;;;;;6.13;3.53;;;16.60;56.30;;;;;;5013429;28;20189;-54
2023/05/12 12:56:35;;;;;;;8.27;3.97;;;16.50;56.30;;;;;;5010748;28;20193;-53
2023/05/12 12:59:06;;;;;;;7.97;3.80;;;16.60;56.20;;;;;;5013089;28;20208;-54
2023/05/12 13:01:36;;;;;;;9.07;4.25;;;16.50;56.20;;;;;;5012647;28;20197;-57
2023/05/12 13:04:07;;;;;;;9.45;4.25;;;16.50;56.10;;;;;;5012523;28;21669;-55
2023/05/12 13:06:40;;;;;;;5.97;3.75;;;16.50;56.10;;;;;;5010689;28;20189;-53
2023/05/12 13:09:10;;;;;;;7.28;3.60;;;16.50;56.10;;;;;;5012591;28;20292;-54
2023/05/12 13:11:41;;;;;;;7.05;3.88;;;16.50;56.10;;;;;;5012480;28;20216;-52